Detroit, Michigan
Traffic Map
Current Weather Conditions
Detroit, Michigan
Few Clouds
Few Clouds
54°
Feels Like: 54°
Wind Chill: 54° Ceiling: Unl
Heat Index: 54° Visibility: 12mi
Dew Point: 52° Wind: 8mph
Humidity: 94% Direction: 160° (SSE)
Pressure: 30.16in Gusts: 0mph
Raw Report DataCYQG 221100Z 16007KT 12SM FEW260 12/11 A3016 RMK CI1 CI TR SLP216
Traffic Incident Summary
Active as of:
Severity:
Category:
InformationThere was an issue retrieving the traffic information for this location. Please try a different location or try again shortly.
Advertisements